sensor_id;sensor_type;location;lat;lon;timestamp;pressure;altitude;pressure_sealevel;temperature;humidity
20115;BME280;10218;42.874;25.320;2023-06-14T00:01:19;96909.66;;;19.47;100.00
20115;BME280;10218;42.874;25.320;2023-06-14T00:03:49;96909.47;;;19.31;100.00
20115;BME280;10218;42.874;25.320;2023-06-14T00:06:16;96913.06;;;19.66;100.00
20115;BME280;10218;42.874;25.320;2023-06-14T00:08:43;96911.41;;;19.77;100.00
20115;BME280;10218;42.874;25.320;2023-06-14T00:11:11;96912.16;;;19.60;100.00
20115;BME280;10218;42.874;25.320;2023-06-14T00:13:38;96910.47;;;19.71;100.00
20115;BME280;10218;42.874;25.320;2023-06-14T00:16:05;96911.12;;;19.32;100.00
20115;BME280;10218;42.874;25.320;2023-06-14T00:18:32;96903.28;;;19.53;100.00
20115;BME280;10218;42.874;25.320;2023-06-14T00:20:59;96899.53;;;19.54;100.00
20115;BME280;10218;42.874;25.320;2023-06-14T00:23:28;96903.56;;;19.22;100.00
20115;BME280;10218;42.874;25.320;2023-06-14T00:25:56;96904.72;;;19.03;100.00
20115;BME280;10218;42.874;25.320;2023-06-14T00:28:23;96899.47;;;19.43;100.00
20115;BME280;10218;42.874;25.320;2023-06-14T00:30:50;96901.47;;;19.36;100.00
20115;BME280;10218;42.874;25.320;2023-06-14T00:33:18;96897.19;;;19.16;100.00
20115;BME280;10218;42.874;25.320;2023-06-14T00:35:45;96895.41;;;19.52;100.00
20115;BME280;10218;42.874;25.320;2023-06-14T00:38:12;96899.59;;;19.25;100.00
20115;BME280;10218;42.874;25.320;2023-06-14T00:40:40;96894.28;;;19.18;100.00
20115;BME280;10218;42.874;25.320;2023-06-14T00:43:07;96884.88;;;19.32;100.00
20115;BME280;10218;42.874;25.320;2023-06-14T00:45:35;96873.94;;;19.62;100.00
20115;BME280;10218;42.874;25.320;2023-06-14T00:48:03;96880.06;;;19.92;100.00
20115;BME280;10218;42.874;25.320;2023-06-14T00:50:33;96872.91;;;19.75;100.00
20115;BME280;10218;42.874;25.320;2023-06-14T00:53:01;96879.78;;;19.36;100.00
20115;BME280;10218;42.874;25.320;2023-06-14T00:55:28;96877.44;;;19.28;100.00
20115;BME280;10218;42.874;25.320;2023-06-14T00:57:55;96868.66;;;19.67;100.00
20115;BME280;10218;42.874;25.320;2023-06-14T01:00:23;96866.41;;;19.52;100.00
20115;BME280;10218;42.874;25.320;2023-06-14T01:02:53;96871.00;;;19.52;100.00
20115;BME280;10218;42.874;25.320;2023-06-14T01:05:21;96865.19;;;19.25;100.00
20115;BME280;10218;42.874;25.320;2023-06-14T01:11:17;96858.38;;;19.22;100.00
20115;BME280;10218;42.874;25.320;2023-06-14T01:13:46;96864.28;;;18.90;100.00
20115;BME280;10218;42.874;25.320;2023-06-14T01:16:14;96866.06;;;18.96;100.00
20115;BME280;10218;42.874;25.320;2023-06-14T01:18:41;96857.03;;;19.02;100.00
20115;BME280;10218;42.874;25.320;2023-06-14T01:21:24;96851.59;;;18.90;100.00
20115;BME280;10218;42.874;25.320;2023-06-14T01:23:52;96847.34;;;19.47;100.00
20115;BME280;10218;42.874;25.320;2023-06-14T01:26:24;96849.22;;;19.47;100.00
20115;BME280;10218;42.874;25.320;2023-06-14T01:28:53;96849.47;;;19.45;100.00
20115;BME280;10218;42.874;25.320;2023-06-14T01:31:25;96845.91;;;19.33;100.00
20115;BME280;10218;42.874;25.320;2023-06-14T01:33:54;96849.62;;;19.20;100.00
20115;BME280;10218;42.874;25.320;2023-06-14T01:36:23;96842.28;;;18.86;100.00
20115;BME280;10218;42.874;25.320;2023-06-14T01:38:58;96858.59;;;19.33;100.00
20115;BME280;10218;42.874;25.320;2023-06-14T01:41:26;96860.47;;;19.20;100.00
20115;BME280;10218;42.874;25.320;2023-06-14T01:43:55;96866.09;;;19.07;100.00
20115;BME280;10218;42.874;25.320;2023-06-14T01:46:24;96864.44;;;19.06;100.00
20115;BME280;10218;42.874;25.320;2023-06-14T01:48:53;96860.19;;;18.87;100.00
20115;BME280;10218;42.874;25.320;2023-06-14T01:51:20;96861.84;;;18.88;100.00
20115;BME280;10218;42.874;25.320;2023-06-14T01:53:48;96867.03;;;19.01;100.00
20115;BME280;10218;42.874;25.320;2023-06-14T01:56:15;96864.03;;;19.33;100.00
20115;BME280;10218;42.874;25.320;2023-06-14T01:58:43;96855.47;;;19.59;100.00
20115;BME280;10218;42.874;25.320;2023-06-14T02:01:10;96854.63;;;19.58;100.00
20115;BME280;10218;42.874;25.320;2023-06-14T02:03:39;96852.78;;;19.06;100.00
20115;BME280;10218;42.874;25.320;2023-06-14T02:06:06;96855.63;;;19.11;100.00
20115;BME280;10218;42.874;25.320;2023-06-14T02:08:33;96852.13;;;19.22;100.00
20115;BME280;10218;42.874;25.320;2023-06-14T02:11:01;96854.41;;;19.48;100.00
20115;BME280;10218;42.874;25.320;2023-06-14T02:13:28;96858.72;;;19.38;100.00
20115;BME280;10218;42.874;25.320;2023-06-14T02:15:55;96861.22;;;19.74;100.00
20115;BME280;10218;42.874;25.320;2023-06-14T02:18:23;96877.69;;;19.38;100.00
20115;BME280;10218;42.874;25.320;2023-06-14T02:20:50;96868.03;;;19.42;100.00
20115;BME280;10218;42.874;25.320;2023-06-14T02:23:17;96863.44;;;19.19;100.00
20115;BME280;10218;42.874;25.320;2023-06-14T02:25:44;96866.13;;;19.31;100.00
20115;BME280;10218;42.874;25.320;2023-06-14T02:28:13;96860.06;;;19.70;100.00
20115;BME280;10218;42.874;25.320;2023-06-14T02:30:40;96869.94;;;19.76;100.00
20115;BME280;10218;42.874;25.320;2023-06-14T02:33:07;96865.91;;;19.32;100.00
20115;BME280;10218;42.874;25.320;2023-06-14T02:35:35;96865.81;;;19.39;100.00
20115;BME280;10218;42.874;25.320;2023-06-14T02:38:04;96863.81;;;19.69;100.00
20115;BME280;10218;42.874;25.320;2023-06-14T02:40:31;96868.19;;;19.47;100.00
20115;BME280;10218;42.874;25.320;2023-06-14T02:42:58;96878.72;;;19.25;100.00
20115;BME280;10218;42.874;25.320;2023-06-14T02:45:26;96877.56;;;18.79;100.00
20115;BME280;10218;42.874;25.320;2023-06-14T02:47:53;96878.25;;;19.16;100.00
20115;BME280;10218;42.874;25.320;2023-06-14T02:50:22;96892.25;;;19.13;100.00
20115;BME280;10218;42.874;25.320;2023-06-14T02:52:50;96879.78;;;19.36;100.00
20115;BME280;10218;42.874;25.320;2023-06-14T02:55:19;96879.19;;;19.22;100.00
20115;BME280;10218;42.874;25.320;2023-06-14T02:57:47;96891.09;;;19.09;100.00
20115;BME280;10218;42.874;25.320;2023-06-14T03:00:15;96888.12;;;19.11;100.00
20115;BME280;10218;42.874;25.320;2023-06-14T03:02:43;96888.38;;;19.09;100.00
20115;BME280;10218;42.874;25.320;2023-06-14T03:05:12;96899.84;;;19.35;100.00
20115;BME280;10218;42.874;25.320;2023-06-14T03:07:40;96888.09;;;19.52;100.00
20115;BME280;10218;42.874;25.320;2023-06-14T03:10:08;96893.94;;;19.38;100.00
20115;BME280;10218;42.874;25.320;2023-06-14T03:12:37;96891.09;;;19.33;100.00
20115;BME280;10218;42.874;25.320;2023-06-14T03:15:05;96895.22;;;19.23;100.00
20115;BME280;10218;42.874;25.320;2023-06-14T03:17:33;96893.63;;;19.57;100.00
20115;BME280;10218;42.874;25.320;2023-06-14T03:20:02;96903.59;;;19.34;100.00
20115;BME280;10218;42.874;25.320;2023-06-14T03:22:30;96897.31;;;19.10;100.00
20115;BME280;10218;42.874;25.320;2023-06-14T03:24:58;96910.44;;;19.25;100.00
20115;BME280;10218;42.874;25.320;2023-06-14T03:27:26;96916.25;;;18.98;100.00
20115;BME280;10218;42.874;25.320;2023-06-14T03:29:55;96920.09;;;19.44;100.00
20115;BME280;10218;42.874;25.320;2023-06-14T03:32:22;96923.41;;;19.46;100.00
20115;BME280;10218;42.874;25.320;2023-06-14T03:34:50;96923.66;;;19.03;100.00
20115;BME280;10218;42.874;25.320;2023-06-14T03:37:17;96922.66;;;19.27;100.00
20115;BME280;10218;42.874;25.320;2023-06-14T03:39:46;96925.91;;;19.47;100.00
20115;BME280;10218;42.874;25.320;2023-06-14T03:42:15;96931.22;;;19.54;100.00
20115;BME280;10218;42.874;25.320;2023-06-14T03:44:42;96926.28;;;19.21;100.00
20115;BME280;10218;42.874;25.320;2023-06-14T03:47:09;96933.41;;;19.34;100.00
20115;BME280;10218;42.874;25.320;2023-06-14T03:49:37;96929.37;;;18.95;100.00
20115;BME280;10218;42.874;25.320;2023-06-14T03:52:04;96930.22;;;18.95;100.00
20115;BME280;10218;42.874;25.320;2023-06-14T03:54:32;96939.09;;;19.02;100.00
20115;BME280;10218;42.874;25.320;2023-06-14T03:57:02;96932.41;;;19.16;100.00
20115;BME280;10218;42.874;25.320;2023-06-14T03:59:29;96927.47;;;19.13;100.00
20115;BME280;10218;42.874;25.320;2023-06-14T04:01:57;96931.97;;;19.19;100.00
20115;BME280;10218;42.874;25.320;2023-06-14T04:04:25;96944.94;;;18.51;100.00
20115;BME280;10218;42.874;25.320;2023-06-14T04:06:56;96938.81;;;18.62;100.00
20115;BME280;10218;42.874;25.320;2023-06-14T04:09:25;96939.88;;;18.91;100.00
20115;BME280;10218;42.874;25.320;2023-06-14T04:11:53;96941.59;;;18.56;100.00
20115;BME280;10218;42.874;25.320;2023-06-14T04:14:20;96945.06;;;18.93;100.00
20115;BME280;10218;42.874;25.320;2023-06-14T04:16:49;96948.03;;;19.03;100.00
20115;BME280;10218;42.874;25.320;2023-06-14T04:19:16;96937.44;;;18.71;100.00
20115;BME280;10218;42.874;25.320;2023-06-14T04:21:43;96960.97;;;19.01;100.00
20115;BME280;10218;42.874;25.320;2023-06-14T04:24:11;96941.38;;;18.87;100.00
20115;BME280;10218;42.874;25.320;2023-06-14T04:26:44;96955.69;;;18.76;100.00
20115;BME280;10218;42.874;25.320;2023-06-14T04:29:13;96957.44;;;19.00;100.00
20115;BME280;10218;42.874;25.320;2023-06-14T04:31:46;96956.88;;;18.80;100.00
20115;BME280;10218;42.874;25.320;2023-06-14T04:34:13;96960.19;;;18.82;100.00
20115;BME280;10218;42.874;25.320;2023-06-14T04:36:43;96965.31;;;18.72;100.00
20115;BME280;10218;42.874;25.320;2023-06-14T04:39:17;96962.13;;;18.93;100.00
20115;BME280;10218;42.874;25.320;2023-06-14T04:41:47;96973.13;;;18.25;100.00
20115;BME280;10218;42.874;25.320;2023-06-14T04:44:14;96980.13;;;18.51;100.00
20115;BME280;10218;42.874;25.320;2023-06-14T04:46:44;96983.94;;;18.80;100.00
20115;BME280;10218;42.874;25.320;2023-06-14T04:49:16;96986.44;;;19.11;100.00
20115;BME280;10218;42.874;25.320;2023-06-14T04:51:45;96982.44;;;18.84;100.00
20115;BME280;10218;42.874;25.320;2023-06-14T04:54:13;96983.94;;;19.10;100.00
20115;BME280;10218;42.874;25.320;2023-06-14T04:56:42;96990.44;;;18.79;100.00
20115;BME280;10218;42.874;25.320;2023-06-14T04:59:10;96987.06;;;18.95;100.00
20115;BME280;10218;42.874;25.320;2023-06-14T05:01:38;96996.91;;;18.78;100.00
20115;BME280;10218;42.874;25.320;2023-06-14T05:04:05;97002.84;;;18.68;100.00
20115;BME280;10218;42.874;25.320;2023-06-14T05:06:33;97004.75;;;18.79;100.00
20115;BME280;10218;42.874;25.320;2023-06-14T05:09:00;97005.03;;;18.90;100.00
20115;BME280;10218;42.874;25.320;2023-06-14T05:11:28;96983.88;;;18.87;100.00
20115;BME280;10218;42.874;25.320;2023-06-14T05:13:55;97010.66;;;19.06;100.00
20115;BME280;10218;42.874;25.320;2023-06-14T05:16:25;97004.81;;;19.09;100.00
20115;BME280;10218;42.874;25.320;2023-06-14T05:18:56;97013.44;;;19.18;100.00
20115;BME280;10218;42.874;25.320;2023-06-14T05:21:23;97020.16;;;19.27;100.00
20115;BME280;10218;42.874;25.320;2023-06-14T05:23:50;97013.66;;;18.68;100.00
20115;BME280;10218;42.874;25.320;2023-06-14T05:26:18;97026.53;;;18.73;100.00
20115;BME280;10218;42.874;25.320;2023-06-14T05:28:45;97018.44;;;18.85;100.00
20115;BME280;10218;42.874;25.320;2023-06-14T05:31:13;97018.41;;;18.73;100.00
20115;BME280;10218;42.874;25.320;2023-06-14T05:33:40;97027.94;;;18.94;100.00
20115;BME280;10218;42.874;25.320;2023-06-14T05:36:07;97034.13;;;19.12;100.00
20115;BME280;10218;42.874;25.320;2023-06-14T05:38:34;97022.97;;;19.20;100.00
20115;BME280;10218;42.874;25.320;2023-06-14T05:41:01;97024.47;;;18.87;100.00
20115;BME280;10218;42.874;25.320;2023-06-14T05:43:28;97027.16;;;18.50;100.00
20115;BME280;10218;42.874;25.320;2023-06-14T05:45:55;97032.94;;;19.08;100.00
20115;BME280;10218;42.874;25.320;2023-06-14T05:48:23;97029.25;;;19.03;100.00
20115;BME280;10218;42.874;25.320;2023-06-14T05:50:50;97028.97;;;18.93;100.00
20115;BME280;10218;42.874;25.320;2023-06-14T05:53:17;97027.59;;;19.02;100.00
20115;BME280;10218;42.874;25.320;2023-06-14T05:55:44;97040.69;;;19.35;100.00
20115;BME280;10218;42.874;25.320;2023-06-14T05:58:11;97041.41;;;19.42;100.00
20115;BME280;10218;42.874;25.320;2023-06-14T06:00:40;97045.66;;;19.38;100.00
20115;BME280;10218;42.874;25.320;2023-06-14T06:03:07;97049.31;;;19.43;100.00
20115;BME280;10218;42.874;25.320;2023-06-14T06:05:38;97051.41;;;19.30;100.00
20115;BME280;10218;42.874;25.320;2023-06-14T06:08:05;97054.91;;;19.00;100.00
20115;BME280;10218;42.874;25.320;2023-06-14T06:10:32;97050.72;;;19.34;100.00
20115;BME280;10218;42.874;25.320;2023-06-14T06:12:59;97057.66;;;19.42;100.00
20115;BME280;10218;42.874;25.320;2023-06-14T06:15:26;97057.09;;;19.40;100.00
20115;BME280;10218;42.874;25.320;2023-06-14T06:17:54;97054.53;;;19.27;100.00
20115;BME280;10218;42.874;25.320;2023-06-14T06:20:25;97062.34;;;19.53;100.00
20115;BME280;10218;42.874;25.320;2023-06-14T06:22:57;97055.88;;;19.54;100.00
20115;BME280;10218;42.874;25.320;2023-06-14T06:25:25;97057.91;;;19.82;100.00
20115;BME280;10218;42.874;25.320;2023-06-14T06:27:54;97061.41;;;19.59;100.00
20115;BME280;10218;42.874;25.320;2023-06-14T06:30:24;97057.41;;;19.61;100.00
20115;BME280;10218;42.874;25.320;2023-06-14T06:32:51;97063.56;;;19.69;100.00
20115;BME280;10218;42.874;25.320;2023-06-14T06:35:18;97059.97;;;19.56;100.00
20115;BME280;10218;42.874;25.320;2023-06-14T06:37:46;97056.03;;;19.71;100.00
20115;BME280;10218;42.874;25.320;2023-06-14T06:40:13;97058.78;;;19.52;100.00
20115;BME280;10218;42.874;25.320;2023-06-14T06:42:41;97067.88;;;19.99;100.00
20115;BME280;10218;42.874;25.320;2023-06-14T06:45:11;97067.22;;;19.74;100.00
20115;BME280;10218;42.874;25.320;2023-06-14T06:47:38;97070.09;;;19.91;100.00
20115;BME280;10218;42.874;25.320;2023-06-14T06:50:05;97067.19;;;20.16;100.00
20115;BME280;10218;42.874;25.320;2023-06-14T06:52:34;97064.94;;;20.82;100.00
20115;BME280;10218;42.874;25.320;2023-06-14T06:55:02;97049.06;;;19.63;100.00
20115;BME280;10218;42.874;25.320;2023-06-14T06:57:29;97057.81;;;19.88;100.00
20115;BME280;10218;42.874;25.320;2023-06-14T06:59:57;97060.72;;;19.63;100.00
20115;BME280;10218;42.874;25.320;2023-06-14T07:02:24;97060.25;;;19.67;100.00
20115;BME280;10218;42.874;25.320;2023-06-14T07:04:51;97051.87;;;20.44;100.00
20115;BME280;10218;42.874;25.320;2023-06-14T07:07:19;97059.03;;;20.27;100.00
20115;BME280;10218;42.874;25.320;2023-06-14T07:09:46;97054.81;;;20.43;100.00
20115;BME280;10218;42.874;25.320;2023-06-14T07:12:13;97060.00;;;20.33;100.00
20115;BME280;10218;42.874;25.320;2023-06-14T07:14:40;97060.44;;;20.06;100.00
20115;BME280;10218;42.874;25.320;2023-06-14T07:17:07;97065.53;;;19.50;100.00
20115;BME280;10218;42.874;25.320;2023-06-14T07:19:35;97071.00;;;19.43;100.00
20115;BME280;10218;42.874;25.320;2023-06-14T07:22:02;97060.56;;;20.00;100.00
20115;BME280;10218;42.874;25.320;2023-06-14T07:24:29;97062.56;;;20.04;100.00
20115;BME280;10218;42.874;25.320;2023-06-14T07:26:56;97067.03;;;20.22;100.00
20115;BME280;10218;42.874;25.320;2023-06-14T07:29:23;97058.75;;;19.82;100.00
20115;BME280;10218;42.874;25.320;2023-06-14T07:31:51;97055.41;;;20.33;100.00
20115;BME280;10218;42.874;25.320;2023-06-14T07:34:18;97056.22;;;20.11;100.00
20115;BME280;10218;42.874;25.320;2023-06-14T07:36:45;97068.41;;;19.78;100.00
20115;BME280;10218;42.874;25.320;2023-06-14T07:39:13;97065.41;;;20.21;100.00
20115;BME280;10218;42.874;25.320;2023-06-14T07:41:40;97050.38;;;20.88;100.00
20115;BME280;10218;42.874;25.320;2023-06-14T07:44:07;97046.03;;;20.87;100.00
20115;BME280;10218;42.874;25.320;2023-06-14T07:46:34;97046.34;;;21.59;100.00
20115;BME280;10218;42.874;25.320;2023-06-14T07:49:01;97046.97;;;21.33;100.00
20115;BME280;10218;42.874;25.320;2023-06-14T07:51:29;97042.44;;;21.39;100.00
20115;BME280;10218;42.874;25.320;2023-06-14T07:53:56;97039.66;;;22.67;100.00
20115;BME280;10218;42.874;25.320;2023-06-14T07:56:23;97045.31;;;21.77;100.00
20115;BME280;10218;42.874;25.320;2023-06-14T07:58:50;97041.16;;;22.03;100.00
20115;BME280;10218;42.874;25.320;2023-06-14T08:01:18;97040.78;;;21.83;100.00
20115;BME280;10218;42.874;25.320;2023-06-14T08:03:47;97035.53;;;21.93;100.00
20115;BME280;10218;42.874;25.320;2023-06-14T08:06:14;97030.69;;;21.95;100.00
20115;BME280;10218;42.874;25.320;2023-06-14T08:08:42;97030.34;;;22.80;100.00
20115;BME280;10218;42.874;25.320;2023-06-14T08:11:09;97027.50;;;23.40;100.00
20115;BME280;10218;42.874;25.320;2023-06-14T08:13:36;97035.63;;;22.70;100.00
20115;BME280;10218;42.874;25.320;2023-06-14T08:16:03;97046.53;;;22.14;100.00
20115;BME280;10218;42.874;25.320;2023-06-14T08:18:32;97040.56;;;23.38;100.00
20115;BME280;10218;42.874;25.320;2023-06-14T08:20:59;97034.22;;;23.81;100.00
20115;BME280;10218;42.874;25.320;2023-06-14T08:23:26;97044.47;;;23.69;100.00
20115;BME280;10218;42.874;25.320;2023-06-14T08:25:54;97050.13;;;22.20;100.00
20115;BME280;10218;42.874;25.320;2023-06-14T08:28:21;97050.19;;;22.42;100.00
20115;BME280;10218;42.874;25.320;2023-06-14T08:30:48;97044.81;;;23.77;100.00
20115;BME280;10218;42.874;25.320;2023-06-14T08:33:16;97054.25;;;22.39;100.00
20115;BME280;10218;42.874;25.320;2023-06-14T08:35:43;97048.44;;;22.52;100.00
20115;BME280;10218;42.874;25.320;2023-06-14T08:38:11;97055.25;;;22.00;100.00
20115;BME280;10218;42.874;25.320;2023-06-14T08:40:39;97049.69;;;23.27;100.00
20115;BME280;10218;42.874;25.320;2023-06-14T08:43:08;97041.63;;;23.37;100.00
20115;BME280;10218;42.874;25.320;2023-06-14T08:45:35;97054.06;;;22.46;100.00
20115;BME280;10218;42.874;25.320;2023-06-14T08:48:03;97040.53;;;22.51;100.00
20115;BME280;10218;42.874;25.320;2023-06-14T08:50:32;97043.66;;;22.59;100.00
20115;BME280;10218;42.874;25.320;2023-06-14T08:53:02;97042.50;;;23.91;100.00
20115;BME280;10218;42.874;25.320;2023-06-14T08:55:31;97039.78;;;23.91;100.00
20115;BME280;10218;42.874;25.320;2023-06-14T08:58:00;97049.94;;;24.27;100.00
20115;BME280;10218;42.874;25.320;2023-06-14T09:00:30;97046.56;;;23.88;100.00
20115;BME280;10218;42.874;25.320;2023-06-14T09:02:57;97046.94;;;24.34;100.00
20115;BME280;10218;42.874;25.320;2023-06-14T09:05:26;97039.34;;;23.46;100.00
20115;BME280;10218;42.874;25.320;2023-06-14T09:07:54;97042.69;;;24.90;100.00
20115;BME280;10218;42.874;25.320;2023-06-14T09:10:23;97046.44;;;24.05;100.00
20115;BME280;10218;42.874;25.320;2023-06-14T09:12:52;97051.94;;;23.08;100.00
20115;BME280;10218;42.874;25.320;2023-06-14T09:15:19;97050.34;;;23.87;100.00
20115;BME280;10218;42.874;25.320;2023-06-14T09:17:47;97063.91;;;24.78;100.00
20115;BME280;10218;42.874;25.320;2023-06-14T09:20:14;97072.75;;;23.14;100.00
20115;BME280;10218;42.874;25.320;2023-06-14T09:22:46;97067.34;;;24.21;100.00
20115;BME280;10218;42.874;25.320;2023-06-14T09:25:13;97050.22;;;25.35;100.00
20115;BME280;10218;42.874;25.320;2023-06-14T09:27:51;97060.28;;;24.67;100.00
20115;BME280;10218;42.874;25.320;2023-06-14T09:30:20;97063.25;;;24.24;100.00
20115;BME280;10218;42.874;25.320;2023-06-14T09:32:48;97065.34;;;23.58;100.00
20115;BME280;10218;42.874;25.320;2023-06-14T09:35:17;97068.31;;;24.42;100.00
20115;BME280;10218;42.874;25.320;2023-06-14T09:37:45;97061.84;;;24.95;100.00
20115;BME280;10218;42.874;25.320;2023-06-14T09:40:12;97056.63;;;24.89;100.00
20115;BME280;10218;42.874;25.320;2023-06-14T09:42:39;97038.88;;;25.64;100.00
20115;BME280;10218;42.874;25.320;2023-06-14T09:45:09;97040.81;;;26.04;100.00
20115;BME280;10218;42.874;25.320;2023-06-14T09:47:39;97047.25;;;25.42;100.00
20115;BME280;10218;42.874;25.320;2023-06-14T09:50:08;97046.78;;;25.70;100.00
20115;BME280;10218;42.874;25.320;2023-06-14T09:52:35;97048.47;;;26.07;100.00
20115;BME280;10218;42.874;25.320;2023-06-14T09:55:11;97043.81;;;26.17;100.00
20115;BME280;10218;42.874;25.320;2023-06-14T09:57:41;97052.97;;;24.73;100.00
20115;BME280;10218;42.874;25.320;2023-06-14T10:00:13;97050.78;;;23.48;100.00
20115;BME280;10218;42.874;25.320;2023-06-14T10:02:47;97053.19;;;23.66;100.00
20115;BME280;10218;42.874;25.320;2023-06-14T10:05:19;97042.78;;;24.63;100.00
20115;BME280;10218;42.874;25.320;2023-06-14T10:07:48;97030.84;;;25.47;100.00
20115;BME280;10218;42.874;25.320;2023-06-14T10:10:19;97042.81;;;25.21;100.00
20115;BME280;10218;42.874;25.320;2023-06-14T10:12:47;97043.37;;;23.70;100.00
20115;BME280;10218;42.874;25.320;2023-06-14T10:15:19;97037.66;;;24.30;100.00
20115;BME280;10218;42.874;25.320;2023-06-14T10:17:56;97034.41;;;25.47;100.00
20115;BME280;10218;42.874;25.320;2023-06-14T10:23:11;97051.75;;;23.90;100.00
20115;BME280;10218;42.874;25.320;2023-06-14T10:25:42;97050.97;;;23.95;100.00
20115;BME280;10218;42.874;25.320;2023-06-14T10:30:39;97048.94;;;23.53;100.00
20115;BME280;10218;42.874;25.320;2023-06-14T10:33:07;97051.03;;;23.73;100.00
20115;BME280;10218;42.874;25.320;2023-06-14T10:35:34;97047.62;;;24.51;100.00
20115;BME280;10218;42.874;25.320;2023-06-14T10:38:09;97048.12;;;23.79;100.00
20115;BME280;10218;42.874;25.320;2023-06-14T10:40:37;97048.84;;;23.70;100.00
20115;BME280;10218;42.874;25.320;2023-06-14T10:43:22;97047.12;;;23.64;100.00
20115;BME280;10218;42.874;25.320;2023-06-14T10:48:42;97050.63;;;23.86;100.00
20115;BME280;10218;42.874;25.320;2023-06-14T10:51:16;97039.03;;;23.20;100.00
20115;BME280;10218;42.874;25.320;2023-06-14T10:53:48;97041.28;;;24.41;100.00
20115;BME280;10218;42.874;25.320;2023-06-14T10:56:28;97045.69;;;24.89;100.00
20115;BME280;10218;42.874;25.320;2023-06-14T10:58:59;97050.69;;;23.91;100.00
20115;BME280;10218;42.874;25.320;2023-06-14T11:01:37;97038.69;;;23.17;100.00
20115;BME280;10218;42.874;25.320;2023-06-14T11:04:10;97047.25;;;23.74;100.00
20115;BME280;10218;42.874;25.320;2023-06-14T11:06:50;97044.06;;;23.55;100.00
20115;BME280;10218;42.874;25.320;2023-06-14T11:12:17;97040.03;;;23.63;100.00
20115;BME280;10218;42.874;25.320;2023-06-14T11:14:48;97039.78;;;23.42;100.00
20115;BME280;10218;42.874;25.320;2023-06-14T11:17:15;97046.50;;;23.83;100.00
20115;BME280;10218;42.874;25.320;2023-06-14T11:19:43;97040.03;;;23.14;100.00
20115;BME280;10218;42.874;25.320;2023-06-14T11:22:10;97041.97;;;23.94;100.00
20115;BME280;10218;42.874;25.320;2023-06-14T11:24:38;97044.09;;;23.87;100.00
20115;BME280;10218;42.874;25.320;2023-06-14T11:27:06;97043.03;;;23.93;100.00
20115;BME280;10218;42.874;25.320;2023-06-14T11:29:33;97043.81;;;23.88;100.00
20115;BME280;10218;42.874;25.320;2023-06-14T11:32:00;97051.75;;;23.36;100.00
20115;BME280;10218;42.874;25.320;2023-06-14T11:34:27;97046.78;;;22.51;100.00
20115;BME280;10218;42.874;25.320;2023-06-14T11:36:55;97045.09;;;22.84;100.00
20115;BME280;10218;42.874;25.320;2023-06-14T11:39:24;97051.87;;;22.26;100.00
20115;BME280;10218;42.874;25.320;2023-06-14T11:41:52;97050.19;;;22.58;100.00
20115;BME280;10218;42.874;25.320;2023-06-14T11:44:19;97048.06;;;22.82;100.00
20115;BME280;10218;42.874;25.320;2023-06-14T11:46:46;97042.50;;;22.94;100.00
20115;BME280;10218;42.874;25.320;2023-06-14T11:49:13;97031.41;;;22.79;100.00
20115;BME280;10218;42.874;25.320;2023-06-14T11:51:42;97033.88;;;23.24;100.00
20115;BME280;10218;42.874;25.320;2023-06-14T11:54:10;97031.91;;;23.19;100.00
20115;BME280;10218;42.874;25.320;2023-06-14T11:56:37;97024.56;;;22.98;100.00
20115;BME280;10218;42.874;25.320;2023-06-14T11:59:04;97020.53;;;23.27;100.00
20115;BME280;10218;42.874;25.320;2023-06-14T12:01:35;97026.16;;;23.42;100.00
20115;BME280;10218;42.874;25.320;2023-06-14T12:04:04;97022.69;;;23.74;100.00
20115;BME280;10218;42.874;25.320;2023-06-14T12:06:31;97026.94;;;24.23;100.00
20115;BME280;10218;42.874;25.320;2023-06-14T12:09:07;97026.16;;;23.42;100.00
20115;BME280;10218;42.874;25.320;2023-06-14T12:11:39;97013.37;;;23.21;100.00
20115;BME280;10218;42.874;25.320;2023-06-14T12:14:08;97033.25;;;23.65;100.00
20115;BME280;10218;42.874;25.320;2023-06-14T12:16:38;97024.53;;;23.68;100.00
20115;BME280;10218;42.874;25.320;2023-06-14T12:19:14;97027.06;;;23.26;100.00
20115;BME280;10218;42.874;25.320;2023-06-14T12:21:43;97024.50;;;23.15;100.00
20115;BME280;10218;42.874;25.320;2023-06-14T12:24:14;97020.53;;;24.13;100.00
20115;BME280;10218;42.874;25.320;2023-06-14T12:26:41;97019.63;;;23.65;100.00
20115;BME280;10218;42.874;25.320;2023-06-14T12:29:09;97010.47;;;23.50;100.00
20115;BME280;10218;42.874;25.320;2023-06-14T12:31:38;97007.66;;;24.03;100.00
20115;BME280;10218;42.874;25.320;2023-06-14T12:34:05;97004.91;;;23.66;100.00
20115;BME280;10218;42.874;25.320;2023-06-14T12:36:32;97004.66;;;24.05;100.00
20115;BME280;10218;42.874;25.320;2023-06-14T12:38:59;97003.13;;;23.82;100.00
20115;BME280;10218;42.874;25.320;2023-06-14T12:41:26;97005.72;;;23.67;100.00
20115;BME280;10218;42.874;25.320;2023-06-14T12:43:54;96991.28;;;23.44;100.00
20115;BME280;10218;42.874;25.320;2023-06-14T12:46:22;96990.06;;;23.57;100.00
20115;BME280;10218;42.874;25.320;2023-06-14T12:48:49;96988.50;;;23.98;100.00
20115;BME280;10218;42.874;25.320;2023-06-14T12:51:16;96997.56;;;23.67;100.00
20115;BME280;10218;42.874;25.320;2023-06-14T12:53:43;96984.97;;;24.35;100.00
20115;BME280;10218;42.874;25.320;2023-06-14T12:56:11;96991.03;;;23.73;100.00
20115;BME280;10218;42.874;25.320;2023-06-14T12:58:37;96990.50;;;24.08;100.00
20115;BME280;10218;42.874;25.320;2023-06-14T13:01:05;96996.38;;;23.90;100.00